createdAt,value
2023-03-03T00:00:07.717Z,6.57
2023-03-03T00:02:43.304Z,6.56
2023-03-03T00:05:10.530Z,6.56
2023-03-03T00:07:37.218Z,6.51
2023-03-03T00:10:04.249Z,6.47
2023-03-03T00:12:31.220Z,6.36
2023-03-03T00:14:58.173Z,6.25
2023-03-03T00:17:27.554Z,6.22
2023-03-03T00:19:54.737Z,6.14
2023-03-03T00:22:36.374Z,6.20
2023-03-03T00:25:29.515Z,6.29
2023-03-03T00:28:01.375Z,6.35
2023-03-03T00:30:29.114Z,6.46
2023-03-03T00:32:55.960Z,6.51
2023-03-03T00:35:30.740Z,6.52
2023-03-03T00:38:04.486Z,6.46
2023-03-03T00:40:38.197Z,6.46
2023-03-03T00:43:24.233Z,6.49
2023-03-03T00:45:53.035Z,6.48
2023-03-03T00:48:20.022Z,6.46
2023-03-03T00:50:46.663Z,6.39
2023-03-03T00:53:18.982Z,6.37
2023-03-03T00:55:47.787Z,6.20
2023-03-03T00:58:14.741Z,6.20
2023-03-03T01:00:44.822Z,6.13
2023-03-03T01:03:25.037Z,6.03
2023-03-03T01:05:52.997Z,6.01
2023-03-03T01:08:20.938Z,6.04
2023-03-03T01:10:57.332Z,6.10
2023-03-03T01:13:27.447Z,6.12
2023-03-03T01:15:54.610Z,6.17
2023-03-03T01:18:21.745Z,6.16
2023-03-03T01:20:48.325Z,6.06
2023-03-03T01:23:14.992Z,6.03
2023-03-03T01:25:41.807Z,6.03
2023-03-03T01:28:08.560Z,5.93
2023-03-03T01:30:35.399Z,5.89
2023-03-03T01:33:02.177Z,5.77
2023-03-03T01:35:29.993Z,5.79
2023-03-03T01:37:57.155Z,5.82
2023-03-03T01:40:27.412Z,5.77
2023-03-03T01:42:54.340Z,5.74
2023-03-03T01:45:27.201Z,5.74
2023-03-03T01:48:10.521Z,5.78
2023-03-03T01:50:40.909Z,5.76
2023-03-03T01:53:13.605Z,5.54
2023-03-03T01:55:41.935Z,5.44
2023-03-03T01:58:13.861Z,5.43
2023-03-03T02:00:44.537Z,5.40
2023-03-03T02:03:11.902Z,5.41
2023-03-03T02:05:41.980Z,5.45
2023-03-03T02:08:16.133Z,5.39
2023-03-03T02:10:45.582Z,5.37
2023-03-03T02:13:12.435Z,5.23
2023-03-03T02:15:39.296Z,5.23
2023-03-03T02:18:15.683Z,4.59
2023-03-03T02:21:00.159Z,4.45
2023-03-03T02:23:34.365Z,4.81
2023-03-03T02:26:13.071Z,5.08
2023-03-03T02:28:40.653Z,5.19
2023-03-03T02:31:13.463Z,5.23
2023-03-03T02:33:43.003Z,5.16
2023-03-03T02:36:19.619Z,5.26
2023-03-03T02:39:08.907Z,5.22
2023-03-03T02:41:40.539Z,5.20
2023-03-03T02:44:17.912Z,5.08
2023-03-03T02:46:49.319Z,5.07
2023-03-03T02:49:19.824Z,5.06
2023-03-03T02:51:46.448Z,5.08
2023-03-03T02:54:15.170Z,5.07
2023-03-03T02:56:42.085Z,5.11
2023-03-03T02:59:09.066Z,5.11
2023-03-03T03:01:40.978Z,5.03
2023-03-03T03:04:15.295Z,5.08
2023-03-03T03:06:44.975Z,5.18
2023-03-03T03:09:14.462Z,5.21
2023-03-03T03:11:41.797Z,5.22
2023-03-03T03:14:11.578Z,5.21
2023-03-03T03:16:40.102Z,5.19
2023-03-03T03:19:07.228Z,5.23
2023-03-03T03:21:35.206Z,5.21
2023-03-03T03:24:02.614Z,5.10
2023-03-03T03:26:29.547Z,4.98
2023-03-03T03:28:56.799Z,5.03
2023-03-03T03:31:23.599Z,5.07
2023-03-03T03:33:50.421Z,5.12
2023-03-03T03:36:17.638Z,5.15
2023-03-03T03:38:44.403Z,5.05
2023-03-03T03:41:12.754Z,4.87
2023-03-03T03:43:39.987Z,4.80
2023-03-03T03:46:07.405Z,4.83
2023-03-03T03:48:34.946Z,4.82
2023-03-03T03:51:03.914Z,4.72
2023-03-03T03:53:31.928Z,4.69
2023-03-03T03:55:58.889Z,4.80
2023-03-03T03:58:25.991Z,4.83
2023-03-03T04:01:03.901Z,4.86
2023-03-03T04:03:31.201Z,4.89
2023-03-03T04:05:57.898Z,4.88
2023-03-03T04:08:25.067Z,4.84
2023-03-03T04:10:51.837Z,4.80
2023-03-03T04:13:18.558Z,4.71
2023-03-03T04:15:45.316Z,4.66
2023-03-03T04:18:12.240Z,4.57
2023-03-03T04:20:40.378Z,4.47
2023-03-03T04:23:07.592Z,4.45
2023-03-03T04:25:34.359Z,4.45
2023-03-03T04:28:03.575Z,4.34
2023-03-03T04:30:33.040Z,4.22
2023-03-03T04:32:59.760Z,4.24
2023-03-03T04:35:27.632Z,4.20
2023-03-03T04:37:54.507Z,4.29
2023-03-03T04:40:21.268Z,4.36
2023-03-03T04:42:50.210Z,4.37
2023-03-03T04:45:17.500Z,4.40
2023-03-03T04:47:45.426Z,4.41
2023-03-03T04:50:12.803Z,4.46
2023-03-03T04:52:40.539Z,4.46
2023-03-03T04:55:10.574Z,4.53
2023-03-03T04:57:38.736Z,4.57
2023-03-03T05:00:06.656Z,4.55
2023-03-03T05:02:33.349Z,4.53
2023-03-03T05:05:00.735Z,4.53
2023-03-03T05:07:27.354Z,4.55
2023-03-03T05:09:54.008Z,4.54
2023-03-03T05:12:21.195Z,4.56
2023-03-03T05:14:48.384Z,4.60
2023-03-03T05:17:15.089Z,4.63
2023-03-03T05:19:41.716Z,4.62
2023-03-03T05:22:08.357Z,4.57
2023-03-03T05:24:34.939Z,4.53
2023-03-03T05:27:03.329Z,4.48
2023-03-03T05:29:31.530Z,4.47
2023-03-03T05:31:58.592Z,4.43
2023-03-03T05:34:25.517Z,4.46
2023-03-03T05:36:52.203Z,4.49
2023-03-03T05:39:18.831Z,4.54
2023-03-03T05:41:45.478Z,4.49
2023-03-03T05:44:12.869Z,4.39
2023-03-03T05:46:39.820Z,4.36
2023-03-03T05:49:06.448Z,4.33
2023-03-03T05:51:33.145Z,4.23
2023-03-03T05:54:02.918Z,4.18
2023-03-03T05:56:29.538Z,4.16
2023-03-03T05:58:56.331Z,4.19
2023-03-03T06:01:23.006Z,4.22
2023-03-03T06:03:49.748Z,4.21
2023-03-03T06:06:17.102Z,4.17
2023-03-03T06:08:43.752Z,4.19
2023-03-03T06:11:10.634Z,4.12
2023-03-03T06:13:37.356Z,3.98
2023-03-03T06:16:04.204Z,3.96
2023-03-03T06:18:30.848Z,3.99
2023-03-03T06:20:57.529Z,3.84
2023-03-03T06:23:24.139Z,3.88
2023-03-03T06:25:50.868Z,3.82
2023-03-03T06:28:17.467Z,3.85
2023-03-03T06:30:44.197Z,3.95
2023-03-03T06:33:11.335Z,4.04
2023-03-03T06:35:38.980Z,4.12
2023-03-03T06:38:06.717Z,4.10
2023-03-03T06:40:33.377Z,4.08
2023-03-03T06:43:02.336Z,4.24
2023-03-03T06:45:29.299Z,4.32
2023-03-03T06:47:56.008Z,4.38
2023-03-03T06:50:22.733Z,4.42
2023-03-03T06:52:50.260Z,4.57
2023-03-03T06:55:23.160Z,4.70
2023-03-03T06:57:49.806Z,4.97
2023-03-03T07:00:24.755Z,5.19
2023-03-03T07:03:08.139Z,5.41
2023-03-03T07:05:34.881Z,5.59
2023-03-03T07:08:01.683Z,5.75
2023-03-03T07:10:30.495Z,6.03
2023-03-03T07:13:06.981Z,6.26
2023-03-03T07:15:35.352Z,6.63
2023-03-03T07:18:03.210Z,6.92
2023-03-03T07:20:39.389Z,7.29
2023-03-03T07:23:42.347Z,7.77
2023-03-03T07:26:17.132Z,8.58
2023-03-03T07:28:58.842Z,9.78
2023-03-03T07:31:39.147Z,10.63
2023-03-03T07:34:37.286Z,11.51
2023-03-03T07:37:13.246Z,12.63
2023-03-03T07:39:44.747Z,13.29
2023-03-03T07:42:33.279Z,14.12
2023-03-03T07:45:32.399Z,14.53
2023-03-03T07:48:25.486Z,15.20
2023-03-03T07:50:52.702Z,15.91
2023-03-03T07:53:25.878Z,16.96
2023-03-03T07:55:52.579Z,17.67
2023-03-03T07:58:33.821Z,18.51
2023-03-03T08:01:36.160Z,18.69
2023-03-03T08:04:07.394Z,19.19
2023-03-03T08:06:44.377Z,19.79
2023-03-03T08:09:10.914Z,20.03
2023-03-03T08:11:52.055Z,20.59
2023-03-03T08:14:27.984Z,20.93
2023-03-03T08:16:55.700Z,21.55
2023-03-03T08:19:23.115Z,21.73
2023-03-03T08:21:50.178Z,22.02
2023-03-03T08:24:16.779Z,22.38
2023-03-03T08:26:43.927Z,22.67
2023-03-03T08:29:11.952Z,23.04
2023-03-03T08:31:41.593Z,22.90
2023-03-03T08:34:08.732Z,23.04
2023-03-03T08:36:35.376Z,23.30
2023-03-03T08:39:04.192Z,21.85
2023-03-03T08:41:30.822Z,23.06
2023-03-03T08:43:57.552Z,22.63
2023-03-03T08:46:24.372Z,23.74
2023-03-03T08:48:51.409Z,25.15
2023-03-03T08:51:18.070Z,25.62
2023-03-03T08:53:44.835Z,25.43
2023-03-03T08:56:11.438Z,26.00
2023-03-03T08:58:41.984Z,26.46
2023-03-03T09:01:11.830Z,26.39
2023-03-03T09:03:38.459Z,26.70
2023-03-03T09:06:05.303Z,26.43
2023-03-03T09:08:32.155Z,25.75
2023-03-03T09:10:59.172Z,25.98
2023-03-03T09:13:27.256Z,26.21
2023-03-03T09:15:54.073Z,26.86
2023-03-03T09:18:26.102Z,28.45
2023-03-03T09:20:57.382Z,27.33
2023-03-03T09:23:24.165Z,27.70
2023-03-03T09:25:52.117Z,28.58
2023-03-03T09:28:22.712Z,28.55
2023-03-03T09:30:51.057Z,29.18
2023-03-03T09:33:23.951Z,29.46
2023-03-03T09:36:05.880Z,29.72
2023-03-03T09:38:34.227Z,31.40
2023-03-03T09:41:28.519Z,31.50
2023-03-03T09:44:04.786Z,30.89
2023-03-03T09:47:05.483Z,30.58
2023-03-03T09:49:34.912Z,31.65
2023-03-03T09:52:23.925Z,31.95
2023-03-03T09:54:55.006Z,32.86
2023-03-03T09:57:42.015Z,32.04
2023-03-03T10:00:30.351Z,31.53
2023-03-03T10:02:59.777Z,31.36
2023-03-03T10:05:41.273Z,30.89
2023-03-03T10:08:42.483Z,32.53
2023-03-03T10:11:23.454Z,33.40
2023-03-03T10:14:02.021Z,34.07
2023-03-03T10:16:44.669Z,33.20
2023-03-03T10:19:34.239Z,32.70
2023-03-03T10:22:08.007Z,32.28
2023-03-03T10:24:55.625Z,31.65
2023-03-03T10:27:28.290Z,30.53
2023-03-03T10:30:10.190Z,30.30
2023-03-03T10:32:55.173Z,31.69
2023-03-03T10:35:47.097Z,33.61
2023-03-03T10:38:49.812Z,33.33
2023-03-03T10:41:39.765Z,32.74
2023-03-03T10:44:21.744Z,32.12
2023-03-03T10:46:51.533Z,33.42
2023-03-03T10:49:42.443Z,33.47
2023-03-03T10:52:31.478Z,34.93
2023-03-03T10:55:15.250Z,33.66
2023-03-03T10:58:02.252Z,33.79
2023-03-03T11:00:35.465Z,34.23
2023-03-03T11:03:29.639Z,33.65
2023-03-03T11:06:15.386Z,33.96
2023-03-03T11:08:54.384Z,34.15
2023-03-03T11:11:36.427Z,33.43
2023-03-03T11:14:54.442Z,34.00
2023-03-03T11:17:38.031Z,34.18
2023-03-03T11:20:23.331Z,35.77
2023-03-03T11:23:23.517Z,33.97
2023-03-03T11:25:56.614Z,34.28
2023-03-03T11:28:29.157Z,35.38
2023-03-03T11:31:07.905Z,33.44
2023-03-03T11:33:39.126Z,34.70
2023-03-03T11:36:18.253Z,35.97
2023-03-03T11:38:53.370Z,34.82
2023-03-03T11:41:32.469Z,34.39
2023-03-03T11:44:09.900Z,34.21
2023-03-03T11:46:51.756Z,34.31
2023-03-03T11:49:18.489Z,34.01
2023-03-03T11:52:12.734Z,33.33
2023-03-03T11:54:49.973Z,34.65
2023-03-03T11:57:23.629Z,34.14
2023-03-03T12:00:18.809Z,34.14
2023-03-03T12:03:04.575Z,33.32
2023-03-03T12:05:56.190Z,33.71
2023-03-03T12:09:00.649Z,33.12
2023-03-03T12:11:48.789Z,33.10
2023-03-03T12:14:30.471Z,32.66
2023-03-03T12:17:13.055Z,32.48
2023-03-03T12:19:59.651Z,31.92
2023-03-03T12:22:37.284Z,31.06
2023-03-03T12:25:41.548Z,31.64
2023-03-03T12:28:25.878Z,30.88
2023-03-03T12:31:25.084Z,28.97
2023-03-03T12:34:01.696Z,27.63
2023-03-03T12:36:49.685Z,26.47
2023-03-03T12:39:35.226Z,26.44
2023-03-03T12:42:24.705Z,25.50
2023-03-03T12:45:24.061Z,24.56
2023-03-03T12:47:55.962Z,23.65
2023-03-03T12:50:47.635Z,22.77
2023-03-03T12:53:26.115Z,22.34
2023-03-03T12:56:04.602Z,21.72
2023-03-03T12:58:46.256Z,21.10
2023-03-03T13:01:28.138Z,20.59
2023-03-03T13:04:10.352Z,20.37
2023-03-03T13:06:52.091Z,20.09
2023-03-03T13:09:37.095Z,19.64
2023-03-03T13:12:08.954Z,19.50
2023-03-03T13:14:44.497Z,19.41
2023-03-03T13:17:19.976Z,19.37
2023-03-03T13:20:00.919Z,19.31
2023-03-03T13:22:30.664Z,19.14
2023-03-03T13:25:07.732Z,19.12
2023-03-03T13:27:40.284Z,18.91
2023-03-03T13:30:16.387Z,19.05
2023-03-03T13:33:10.634Z,18.93
2023-03-03T13:35:53.950Z,18.98
2023-03-03T13:38:24.846Z,18.56
2023-03-03T13:41:04.273Z,18.44
2023-03-03T13:43:40.309Z,18.42
2023-03-03T13:46:21.646Z,18.36
2023-03-03T13:49:15.727Z,18.43
2023-03-03T13:51:51.591Z,18.31
2023-03-03T13:54:39.528Z,18.33
2023-03-03T13:57:15.253Z,18.34
2023-03-03T14:00:19.514Z,18.45
2023-03-03T14:03:20.511Z,18.49
2023-03-03T14:06:02.179Z,18.46
2023-03-03T14:08:47.629Z,18.55
2023-03-03T14:11:41.935Z,18.32
2023-03-03T14:14:43.587Z,18.07
2023-03-03T14:17:55.082Z,17.97
2023-03-03T14:20:28.947Z,17.83
2023-03-03T14:23:10.206Z,17.95
2023-03-03T14:26:04.658Z,18.05
2023-03-03T14:28:46.381Z,18.01
2023-03-03T14:31:26.411Z,17.84
2023-03-03T14:34:11.490Z,17.83
2023-03-03T14:36:43.246Z,17.65
2023-03-03T14:39:28.723Z,17.73
2023-03-03T14:41:57.448Z,17.78
2023-03-03T14:44:30.216Z,17.73
2023-03-03T14:47:08.983Z,17.76
2023-03-03T14:49:38.408Z,17.65
2023-03-03T14:52:20.212Z,17.64
2023-03-03T14:54:49.282Z,17.59
2023-03-03T14:57:21.636Z,17.45
2023-03-03T14:59:58.446Z,17.41
2023-03-03T15:02:30.678Z,17.42
2023-03-03T15:05:26.747Z,17.42
2023-03-03T15:08:15.038Z,17.11
2023-03-03T15:10:44.227Z,17.26
2023-03-03T15:13:33.308Z,17.31
2023-03-03T15:15:59.917Z,17.06
2023-03-03T15:18:28.035Z,17.12
2023-03-03T15:21:18.702Z,17.14
2023-03-03T15:24:06.625Z,17.12
2023-03-03T15:26:35.924Z,17.08
2023-03-03T15:29:07.846Z,17.09
2023-03-03T15:31:50.044Z,17.03
2023-03-03T15:34:31.869Z,17.00
2023-03-03T15:37:04.742Z,17.02
2023-03-03T15:39:37.085Z,17.04
2023-03-03T15:42:15.796Z,16.75
2023-03-03T15:44:58.929Z,16.67
2023-03-03T15:48:03.980Z,16.64
2023-03-03T15:50:33.387Z,16.64
2023-03-03T15:53:27.464Z,16.39
2023-03-03T15:56:10.953Z,16.19
2023-03-03T15:59:02.601Z,16.17
2023-03-03T16:01:41.665Z,16.02
2023-03-03T16:04:15.443Z,15.90
2023-03-03T16:06:53.856Z,15.89
2023-03-03T16:09:59.461Z,15.88
2023-03-03T16:12:59.653Z,15.87
2023-03-03T16:15:29.245Z,15.68
2023-03-03T16:18:20.910Z,15.63
2023-03-03T16:21:08.774Z,15.51
2023-03-03T16:23:47.199Z,15.34
2023-03-03T16:26:25.057Z,15.34
2023-03-03T16:29:08.567Z,15.34
2023-03-03T16:31:54.065Z,15.23
2023-03-03T16:34:42.806Z,15.13
2023-03-03T16:37:21.449Z,15.00
2023-03-03T16:39:53.751Z,14.86
2023-03-03T16:42:26.737Z,14.78
2023-03-03T16:45:15.722Z,14.80
2023-03-03T16:47:58.183Z,14.80
2023-03-03T16:50:40.055Z,14.74
2023-03-03T16:53:32.204Z,14.62
2023-03-03T16:56:17.710Z,14.52
2023-03-03T16:59:37.191Z,14.47
2023-03-03T17:02:25.193Z,14.36
2023-03-03T17:05:00.454Z,14.27
2023-03-03T17:07:46.207Z,14.12
2023-03-03T17:10:24.904Z,14.07
2023-03-03T17:13:13.264Z,14.00
2023-03-03T17:16:05.179Z,13.91
2023-03-03T17:18:44.701Z,13.83
2023-03-03T17:21:53.168Z,13.77
2023-03-03T17:24:57.687Z,13.68
2023-03-03T17:27:33.456Z,13.66
2023-03-03T17:30:22.420Z,13.58
2023-03-03T17:33:07.992Z,13.55
2023-03-03T17:35:56.769Z,13.48
2023-03-03T17:38:38.472Z,13.46
2023-03-03T17:41:20.767Z,13.38
2023-03-03T17:44:15.238Z,13.32
2023-03-03T17:46:51.482Z,13.28
2023-03-03T17:49:43.625Z,13.12
2023-03-03T17:52:35.289Z,13.16
2023-03-03T17:55:17.166Z,13.11
2023-03-03T17:58:02.538Z,13.02
2023-03-03T18:00:50.251Z,12.81
2023-03-03T18:03:22.808Z,12.77
2023-03-03T18:06:05.059Z,12.56
2023-03-03T18:08:55.753Z,12.51
2023-03-03T18:11:41.400Z,12.35
2023-03-03T18:14:23.224Z,12.22
2023-03-03T18:17:09.841Z,12.11
2023-03-03T18:19:56.508Z,12.11
2023-03-03T18:22:29.102Z,12.03
2023-03-03T18:25:08.279Z,11.90
2023-03-03T18:27:37.488Z,11.87
2023-03-03T18:30:20.501Z,11.86
2023-03-03T18:32:56.418Z,11.83
2023-03-03T18:35:40.091Z,11.80
2023-03-03T18:38:16.014Z,11.84
2023-03-03T18:40:57.772Z,11.78
2023-03-03T18:43:39.432Z,11.69
2023-03-03T18:46:10.670Z,11.54
2023-03-03T18:49:01.448Z,11.49
2023-03-03T18:51:49.239Z,11.40
2023-03-03T18:54:20.908Z,11.28
2023-03-03T18:56:50.195Z,11.24
2023-03-03T18:59:35.209Z,11.15
2023-03-03T19:02:32.551Z,11.15
2023-03-03T19:05:09.004Z,11.08
2023-03-03T19:07:41.670Z,11.00
2023-03-03T19:10:34.263Z,10.96
2023-03-03T19:13:01.015Z,10.96
2023-03-03T19:15:51.279Z,10.92
2023-03-03T19:18:25.605Z,10.86
2023-03-03T19:20:59.457Z,10.86
2023-03-03T19:23:48.056Z,10.79
2023-03-03T19:26:29.642Z,10.77
2023-03-03T19:29:31.514Z,10.70
2023-03-03T19:32:19.859Z,10.68
2023-03-03T19:35:01.577Z,10.60
2023-03-03T19:37:37.300Z,10.51
2023-03-03T19:40:27.015Z,10.43
2023-03-03T19:43:22.217Z,10.37
2023-03-03T19:45:51.836Z,10.37
2023-03-03T19:48:34.201Z,10.27
2023-03-03T19:51:24.209Z,10.29
2023-03-03T19:54:12.191Z,10.23
2023-03-03T19:56:49.911Z,10.11
2023-03-03T19:59:36.594Z,9.95
2023-03-03T20:02:26.620Z,9.82
2023-03-03T20:05:13.814Z,9.76
2023-03-03T20:07:50.082Z,9.55
2023-03-03T20:10:16.663Z,9.43
2023-03-03T20:13:08.117Z,9.34
2023-03-03T20:15:59.078Z,9.33
2023-03-03T20:18:28.387Z,9.13
2023-03-03T20:21:07.357Z,9.19
2023-03-03T20:23:49.017Z,9.10
2023-03-03T20:26:19.622Z,9.10
2023-03-03T20:28:55.371Z,9.13
2023-03-03T20:31:36.325Z,9.05
2023-03-03T20:34:32.099Z,8.99
2023-03-03T20:37:08.915Z,8.93
2023-03-03T20:40:02.483Z,8.96
2023-03-03T20:43:06.531Z,8.95
2023-03-03T20:45:59.609Z,8.98
2023-03-03T20:48:50.977Z,8.80
2023-03-03T20:51:42.873Z,8.78
2023-03-03T20:54:15.661Z,8.75
2023-03-03T20:57:00.632Z,8.81
2023-03-03T20:59:40.755Z,8.72
2023-03-03T21:02:25.683Z,8.76
2023-03-03T21:05:22.567Z,8.66
2023-03-03T21:07:56.906Z,8.61
2023-03-03T21:10:35.811Z,8.55
2023-03-03T21:13:41.205Z,8.58
2023-03-03T21:16:12.532Z,8.47
2023-03-03T21:18:39.547Z,8.28
2023-03-03T21:21:08.007Z,8.30
2023-03-03T21:23:34.753Z,8.32
2023-03-03T21:26:01.446Z,8.30
2023-03-03T21:28:33.560Z,8.24
2023-03-03T21:31:09.159Z,8.11
2023-03-03T21:33:42.098Z,8.03
2023-03-03T21:36:10.898Z,7.97
2023-03-03T21:38:39.101Z,7.97
2023-03-03T21:41:07.618Z,7.96
2023-03-03T21:43:36.702Z,7.97
2023-03-03T21:46:03.520Z,7.87
2023-03-03T21:48:30.596Z,7.90
2023-03-03T21:50:57.243Z,7.85
2023-03-03T21:53:26.458Z,7.78
2023-03-03T21:55:53.722Z,7.76
2023-03-03T21:58:20.412Z,7.73
2023-03-03T22:00:47.102Z,7.66
2023-03-03T22:03:15.389Z,7.64
2023-03-03T22:05:42.106Z,7.61
2023-03-03T22:08:09.700Z,7.49
2023-03-03T22:10:36.348Z,7.45
2023-03-03T22:13:03.116Z,7.41
2023-03-03T22:15:33.178Z,7.41
2023-03-03T22:18:00.677Z,7.37
2023-03-03T22:20:27.468Z,7.44
2023-03-03T22:22:54.261Z,7.34
2023-03-03T22:25:20.935Z,7.28
2023-03-03T22:27:47.624Z,7.14
2023-03-03T22:30:14.476Z,7.00
2023-03-03T22:32:41.144Z,6.94
2023-03-03T22:35:08.582Z,6.86
2023-03-03T22:37:35.384Z,6.86
2023-03-03T22:40:02.462Z,6.81
2023-03-03T22:42:29.309Z,6.82
2023-03-03T22:44:55.898Z,6.88
2023-03-03T22:47:22.543Z,6.78
2023-03-03T22:49:49.154Z,6.74
2023-03-03T22:52:15.825Z,6.72
2023-03-03T22:54:42.527Z,6.73
2023-03-03T22:57:09.266Z,6.76
2023-03-03T22:59:35.925Z,6.76
2023-03-03T23:02:02.825Z,6.70
2023-03-03T23:04:29.645Z,6.71
2023-03-03T23:06:57.143Z,6.67
2023-03-03T23:09:23.923Z,6.71
2023-03-03T23:11:50.599Z,6.78
2023-03-03T23:14:17.507Z,6.69
2023-03-03T23:16:45.447Z,6.62
2023-03-03T23:19:12.195Z,6.63
2023-03-03T23:21:39.042Z,6.55
2023-03-03T23:24:06.499Z,6.54
2023-03-03T23:26:33.166Z,6.59
2023-03-03T23:28:59.786Z,6.62
2023-03-03T23:31:26.999Z,6.57
2023-03-03T23:33:53.666Z,6.58
2023-03-03T23:36:20.335Z,6.55
2023-03-03T23:38:47.074Z,6.43
2023-03-03T23:41:13.709Z,6.36
2023-03-03T23:43:40.751Z,6.33
2023-03-03T23:46:07.422Z,6.18
2023-03-03T23:48:34.056Z,6.13
2023-03-03T23:51:01.487Z,6.11
2023-03-03T23:53:28.113Z,6.13
2023-03-03T23:55:54.881Z,6.13
2023-03-03T23:58:21.507Z,6.07
